sensor_id;sensor_type;location;lat;lon;timestamp;temperature;humidity
21246;DHT22;10781;50.928;4.440;2023-11-21T00:00:14;11.70;99.90
21246;DHT22;10781;50.928;4.440;2023-11-21T00:02:41;11.80;99.90
21246;DHT22;10781;50.928;4.440;2023-11-21T00:05:11;11.80;99.90
21246;DHT22;10781;50.928;4.440;2023-11-21T00:07:42;11.70;99.90
21246;DHT22;10781;50.928;4.440;2023-11-21T00:10:09;11.80;99.90
21246;DHT22;10781;50.928;4.440;2023-11-21T00:12:36;11.90;99.90
21246;DHT22;10781;50.928;4.440;2023-11-21T00:15:03;11.90;99.90
21246;DHT22;10781;50.928;4.440;2023-11-21T00:17:34;11.80;99.90
21246;DHT22;10781;50.928;4.440;2023-11-21T00:20:00;11.90;99.90
21246;DHT22;10781;50.928;4.440;2023-11-21T00:22:26;12.00;99.90
21246;DHT22;10781;50.928;4.440;2023-11-21T00:24:52;11.90;99.90
21246;DHT22;10781;50.928;4.440;2023-11-21T00:27:17;11.90;99.90
21246;DHT22;10781;50.928;4.440;2023-11-21T00:29:43;11.90;99.90
21246;DHT22;10781;50.928;4.440;2023-11-21T00:32:09;11.80;99.90
21246;DHT22;10781;50.928;4.440;2023-11-21T00:34:34;11.80;99.90
21246;DHT22;10781;50.928;4.440;2023-11-21T00:37:00;11.80;99.90
21246;DHT22;10781;50.928;4.440;2023-11-21T00:39:26;11.80;99.90
21246;DHT22;10781;50.928;4.440;2023-11-21T00:41:52;11.80;99.90
21246;DHT22;10781;50.928;4.440;2023-11-21T00:44:18;11.80;99.90
21246;DHT22;10781;50.928;4.440;2023-11-21T00:46:43;11.60;99.90
21246;DHT22;10781;50.928;4.440;2023-11-21T00:49:09;11.50;99.90
21246;DHT22;10781;50.928;4.440;2023-11-21T00:51:35;11.30;99.90
21246;DHT22;10781;50.928;4.440;2023-11-21T00:54:01;11.30;99.90
21246;DHT22;10781;50.928;4.440;2023-11-21T00:56:27;11.20;99.90
21246;DHT22;10781;50.928;4.440;2023-11-21T00:58:53;11.30;99.90
21246;DHT22;10781;50.928;4.440;2023-11-21T01:01:19;11.30;99.90
21246;DHT22;10781;50.928;4.440;2023-11-21T01:03:48;11.40;99.90
21246;DHT22;10781;50.928;4.440;2023-11-21T01:06:15;11.40;99.90
21246;DHT22;10781;50.928;4.440;2023-11-21T01:08:40;11.50;99.90
21246;DHT22;10781;50.928;4.440;2023-11-21T01:11:06;11.60;99.90
21246;DHT22;10781;50.928;4.440;2023-11-21T01:13:37;11.50;99.90
21246;DHT22;10781;50.928;4.440;2023-11-21T01:16:03;11.50;99.90
21246;DHT22;10781;50.928;4.440;2023-11-21T01:18:29;11.40;99.90
21246;DHT22;10781;50.928;4.440;2023-11-21T01:20:55;11.40;99.90
21246;DHT22;10781;50.928;4.440;2023-11-21T01:23:20;11.40;99.90
21246;DHT22;10781;50.928;4.440;2023-11-21T01:25:46;11.40;99.90
21246;DHT22;10781;50.928;4.440;2023-11-21T01:28:11;11.60;99.90
21246;DHT22;10781;50.928;4.440;2023-11-21T01:30:37;11.70;99.90
21246;DHT22;10781;50.928;4.440;2023-11-21T01:33:03;11.70;99.90
21246;DHT22;10781;50.928;4.440;2023-11-21T01:35:29;11.60;99.90
21246;DHT22;10781;50.928;4.440;2023-11-21T01:37:55;11.70;99.90
21246;DHT22;10781;50.928;4.440;2023-11-21T01:40:21;11.60;99.90
21246;DHT22;10781;50.928;4.440;2023-11-21T01:42:47;11.60;99.90
21246;DHT22;10781;50.928;4.440;2023-11-21T01:45:13;11.60;99.90
21246;DHT22;10781;50.928;4.440;2023-11-21T01:47:40;11.60;99.90
21246;DHT22;10781;50.928;4.440;2023-11-21T01:50:08;11.60;99.90
21246;DHT22;10781;50.928;4.440;2023-11-21T01:52:37;11.70;99.90
21246;DHT22;10781;50.928;4.440;2023-11-21T01:55:05;11.70;99.90
21246;DHT22;10781;50.928;4.440;2023-11-21T01:57:31;11.80;99.90
21246;DHT22;10781;50.928;4.440;2023-11-21T01:59:58;11.80;99.90
21246;DHT22;10781;50.928;4.440;2023-11-21T02:02:26;11.80;99.90
21246;DHT22;10781;50.928;4.440;2023-11-21T02:04:52;11.70;99.90
21246;DHT22;10781;50.928;4.440;2023-11-21T02:07:17;11.80;99.90
21246;DHT22;10781;50.928;4.440;2023-11-21T02:09:45;11.90;99.90
21246;DHT22;10781;50.928;4.440;2023-11-21T02:12:10;11.90;99.90
21246;DHT22;10781;50.928;4.440;2023-11-21T02:14:36;11.90;99.90
21246;DHT22;10781;50.928;4.440;2023-11-21T02:17:02;11.90;99.90
21246;DHT22;10781;50.928;4.440;2023-11-21T02:19:29;11.80;99.90
21246;DHT22;10781;50.928;4.440;2023-11-21T02:21:56;11.70;99.90
21246;DHT22;10781;50.928;4.440;2023-11-21T02:24:25;11.50;99.90
21246;DHT22;10781;50.928;4.440;2023-11-21T02:26:51;11.50;99.90
21246;DHT22;10781;50.928;4.440;2023-11-21T02:29:20;11.40;99.90
21246;DHT22;10781;50.928;4.440;2023-11-21T02:31:54;11.40;99.90
21246;DHT22;10781;50.928;4.440;2023-11-21T02:34:20;11.30;99.90
21246;DHT22;10781;50.928;4.440;2023-11-21T02:36:47;11.40;99.90
21246;DHT22;10781;50.928;4.440;2023-11-21T02:39:15;11.30;99.90
21246;DHT22;10781;50.928;4.440;2023-11-21T02:41:42;11.40;99.90
21246;DHT22;10781;50.928;4.440;2023-11-21T02:44:08;11.50;99.90
21246;DHT22;10781;50.928;4.440;2023-11-21T02:46:35;11.50;99.90
21246;DHT22;10781;50.928;4.440;2023-11-21T02:49:03;11.50;99.90
21246;DHT22;10781;50.928;4.440;2023-11-21T02:51:33;11.30;99.90
21246;DHT22;10781;50.928;4.440;2023-11-21T02:53:59;11.20;99.90
21246;DHT22;10781;50.928;4.440;2023-11-21T02:56:26;11.30;99.90
21246;DHT22;10781;50.928;4.440;2023-11-21T02:58:52;11.40;99.90
21246;DHT22;10781;50.928;4.440;2023-11-21T03:01:18;11.50;99.90
21246;DHT22;10781;50.928;4.440;2023-11-21T03:03:43;11.70;99.90
21246;DHT22;10781;50.928;4.440;2023-11-21T03:06:09;11.80;99.90
21246;DHT22;10781;50.928;4.440;2023-11-21T03:08:35;11.90;99.90
21246;DHT22;10781;50.928;4.440;2023-11-21T03:11:01;11.80;99.90
21246;DHT22;10781;50.928;4.440;2023-11-21T03:13:29;11.60;99.90
21246;DHT22;10781;50.928;4.440;2023-11-21T03:15:54;11.50;99.90
21246;DHT22;10781;50.928;4.440;2023-11-21T03:18:20;11.50;99.90
21246;DHT22;10781;50.928;4.440;2023-11-21T03:20:47;11.60;99.90
21246;DHT22;10781;50.928;4.440;2023-11-21T03:23:13;11.70;99.90
21246;DHT22;10781;50.928;4.440;2023-11-21T03:25:39;11.50;99.90
21246;DHT22;10781;50.928;4.440;2023-11-21T03:28:04;11.30;99.90
21246;DHT22;10781;50.928;4.440;2023-11-21T03:30:30;11.30;99.90
21246;DHT22;10781;50.928;4.440;2023-11-21T03:32:56;11.30;99.90
21246;DHT22;10781;50.928;4.440;2023-11-21T03:35:22;11.40;99.90
21246;DHT22;10781;50.928;4.440;2023-11-21T03:37:48;11.40;99.90
21246;DHT22;10781;50.928;4.440;2023-11-21T03:40:14;11.50;99.90
21246;DHT22;10781;50.928;4.440;2023-11-21T03:42:39;11.70;99.90
21246;DHT22;10781;50.928;4.440;2023-11-21T03:45:06;11.90;99.90
21246;DHT22;10781;50.928;4.440;2023-11-21T03:47:32;12.10;99.90
21246;DHT22;10781;50.928;4.440;2023-11-21T03:50:00;12.10;99.90
21246;DHT22;10781;50.928;4.440;2023-11-21T03:52:26;12.30;99.90
21246;DHT22;10781;50.928;4.440;2023-11-21T03:54:53;12.40;99.90
21246;DHT22;10781;50.928;4.440;2023-11-21T03:57:20;12.40;99.90
21246;DHT22;10781;50.928;4.440;2023-11-21T03:59:46;12.40;99.90
21246;DHT22;10781;50.928;4.440;2023-11-21T04:02:12;12.20;99.90
21246;DHT22;10781;50.928;4.440;2023-11-21T04:04:38;12.10;99.90
21246;DHT22;10781;50.928;4.440;2023-11-21T04:07:03;12.00;99.90
21246;DHT22;10781;50.928;4.440;2023-11-21T04:09:29;11.90;99.90
21246;DHT22;10781;50.928;4.440;2023-11-21T04:11:55;11.80;99.90
21246;DHT22;10781;50.928;4.440;2023-11-21T04:14:21;11.70;99.90
21246;DHT22;10781;50.928;4.440;2023-11-21T04:16:47;11.90;99.90
21246;DHT22;10781;50.928;4.440;2023-11-21T04:19:14;12.00;99.90
21246;DHT22;10781;50.928;4.440;2023-11-21T04:21:42;12.00;99.90
21246;DHT22;10781;50.928;4.440;2023-11-21T04:24:08;12.10;99.90
21246;DHT22;10781;50.928;4.440;2023-11-21T04:26:34;12.10;99.90
21246;DHT22;10781;50.928;4.440;2023-11-21T04:28:59;12.10;99.90
21246;DHT22;10781;50.928;4.440;2023-11-21T04:31:25;12.00;99.90
21246;DHT22;10781;50.928;4.440;2023-11-21T04:33:51;12.10;99.90
21246;DHT22;10781;50.928;4.440;2023-11-21T04:36:16;12.20;99.90
21246;DHT22;10781;50.928;4.440;2023-11-21T04:38:42;12.20;99.90
21246;DHT22;10781;50.928;4.440;2023-11-21T04:41:08;12.30;99.90
21246;DHT22;10781;50.928;4.440;2023-11-21T04:43:34;12.30;99.90
21246;DHT22;10781;50.928;4.440;2023-11-21T04:45:59;12.40;99.90
21246;DHT22;10781;50.928;4.440;2023-11-21T04:48:25;12.40;99.90
21246;DHT22;10781;50.928;4.440;2023-11-21T04:50:51;12.40;99.90
21246;DHT22;10781;50.928;4.440;2023-11-21T04:53:17;12.30;99.90
21246;DHT22;10781;50.928;4.440;2023-11-21T04:55:43;12.30;99.90
21246;DHT22;10781;50.928;4.440;2023-11-21T04:58:09;12.20;99.90
21246;DHT22;10781;50.928;4.440;2023-11-21T05:00:35;12.30;99.90
21246;DHT22;10781;50.928;4.440;2023-11-21T05:03:02;12.40;99.90
21246;DHT22;10781;50.928;4.440;2023-11-21T05:05:29;12.40;99.90
21246;DHT22;10781;50.928;4.440;2023-11-21T05:07:57;12.40;99.90
21246;DHT22;10781;50.928;4.440;2023-11-21T05:10:23;12.30;99.90
21246;DHT22;10781;50.928;4.440;2023-11-21T05:12:49;12.30;99.90
21246;DHT22;10781;50.928;4.440;2023-11-21T05:15:16;12.30;99.90
21246;DHT22;10781;50.928;4.440;2023-11-21T05:17:43;12.30;99.90
21246;DHT22;10781;50.928;4.440;2023-11-21T05:20:13;12.00;99.90
21246;DHT22;10781;50.928;4.440;2023-11-21T05:22:40;12.00;99.90
21246;DHT22;10781;50.928;4.440;2023-11-21T05:25:07;12.00;99.90
21246;DHT22;10781;50.928;4.440;2023-11-21T05:27:34;12.00;99.90
21246;DHT22;10781;50.928;4.440;2023-11-21T05:30:04;12.00;99.90
21246;DHT22;10781;50.928;4.440;2023-11-21T05:32:37;12.10;99.90
21246;DHT22;10781;50.928;4.440;2023-11-21T05:35:04;12.10;99.90
21246;DHT22;10781;50.928;4.440;2023-11-21T05:37:35;12.10;99.90
21246;DHT22;10781;50.928;4.440;2023-11-21T05:40:01;12.10;99.90
21246;DHT22;10781;50.928;4.440;2023-11-21T05:42:34;12.20;99.90
21246;DHT22;10781;50.928;4.440;2023-11-21T05:45:01;12.10;99.90
21246;DHT22;10781;50.928;4.440;2023-11-21T05:47:44;12.10;99.90
21246;DHT22;10781;50.928;4.440;2023-11-21T05:50:12;12.00;99.90
21246;DHT22;10781;50.928;4.440;2023-11-21T05:52:40;11.60;99.90
21246;DHT22;10781;50.928;4.440;2023-11-21T05:55:07;11.50;99.90
21246;DHT22;10781;50.928;4.440;2023-11-21T05:57:38;11.70;99.90
21246;DHT22;10781;50.928;4.440;2023-11-21T06:00:11;12.00;99.90
21246;DHT22;10781;50.928;4.440;2023-11-21T06:02:43;12.10;99.90
21246;DHT22;10781;50.928;4.440;2023-11-21T06:05:10;12.30;99.90
21246;DHT22;10781;50.928;4.440;2023-11-21T06:07:37;12.30;99.90
21246;DHT22;10781;50.928;4.440;2023-11-21T06:10:04;12.40;99.90
21246;DHT22;10781;50.928;4.440;2023-11-21T06:12:32;12.40;99.90
21246;DHT22;10781;50.928;4.440;2023-11-21T06:15:02;12.40;99.90
21246;DHT22;10781;50.928;4.440;2023-11-21T06:17:33;12.30;99.90
21246;DHT22;10781;50.928;4.440;2023-11-21T06:20:02;12.20;99.90
21246;DHT22;10781;50.928;4.440;2023-11-21T06:22:38;12.20;99.90
21246;DHT22;10781;50.928;4.440;2023-11-21T06:25:06;12.00;99.90
21246;DHT22;10781;50.928;4.440;2023-11-21T06:27:34;12.00;99.90
21246;DHT22;10781;50.928;4.440;2023-11-21T06:30:01;11.90;99.90
21246;DHT22;10781;50.928;4.440;2023-11-21T06:32:27;12.00;99.90
21246;DHT22;10781;50.928;4.440;2023-11-21T06:34:55;12.00;99.90
21246;DHT22;10781;50.928;4.440;2023-11-21T06:37:21;12.00;99.90
21246;DHT22;10781;50.928;4.440;2023-11-21T06:39:49;11.80;99.90
21246;DHT22;10781;50.928;4.440;2023-11-21T06:42:14;11.90;99.90
21246;DHT22;10781;50.928;4.440;2023-11-21T06:44:41;12.00;99.90
21246;DHT22;10781;50.928;4.440;2023-11-21T06:47:07;12.20;99.90
21246;DHT22;10781;50.928;4.440;2023-11-21T06:49:32;12.30;99.90
21246;DHT22;10781;50.928;4.440;2023-11-21T06:51:58;12.30;99.90
21246;DHT22;10781;50.928;4.440;2023-11-21T06:54:26;12.10;99.90
21246;DHT22;10781;50.928;4.440;2023-11-21T06:56:51;12.00;99.90
21246;DHT22;10781;50.928;4.440;2023-11-21T06:59:18;12.10;99.90
21246;DHT22;10781;50.928;4.440;2023-11-21T07:01:44;12.10;99.90
21246;DHT22;10781;50.928;4.440;2023-11-21T07:04:10;12.10;99.90
21246;DHT22;10781;50.928;4.440;2023-11-21T07:06:35;12.20;99.90
21246;DHT22;10781;50.928;4.440;2023-11-21T07:09:01;12.30;99.90
21246;DHT22;10781;50.928;4.440;2023-11-21T07:11:28;12.30;99.90
21246;DHT22;10781;50.928;4.440;2023-11-21T07:13:54;12.40;99.90
21246;DHT22;10781;50.928;4.440;2023-11-21T07:16:20;12.50;99.90
21246;DHT22;10781;50.928;4.440;2023-11-21T07:18:46;12.60;99.90
21246;DHT22;10781;50.928;4.440;2023-11-21T07:21:11;12.60;99.90
21246;DHT22;10781;50.928;4.440;2023-11-21T07:23:38;12.50;99.90
21246;DHT22;10781;50.928;4.440;2023-11-21T07:26:04;12.50;99.90
21246;DHT22;10781;50.928;4.440;2023-11-21T07:28:34;12.30;99.90
21246;DHT22;10781;50.928;4.440;2023-11-21T07:31:01;12.20;99.90
21246;DHT22;10781;50.928;4.440;2023-11-21T07:33:27;12.20;99.90
21246;DHT22;10781;50.928;4.440;2023-11-21T07:35:52;12.30;99.90
21246;DHT22;10781;50.928;4.440;2023-11-21T07:38:18;12.40;99.90
21246;DHT22;10781;50.928;4.440;2023-11-21T07:40:44;12.30;99.90
21246;DHT22;10781;50.928;4.440;2023-11-21T07:43:09;12.30;99.90
21246;DHT22;10781;50.928;4.440;2023-11-21T07:45:36;12.30;99.90
21246;DHT22;10781;50.928;4.440;2023-11-21T07:48:02;12.30;99.90
21246;DHT22;10781;50.928;4.440;2023-11-21T07:50:29;12.20;99.90
21246;DHT22;10781;50.928;4.440;2023-11-21T07:52:55;12.20;99.90
21246;DHT22;10781;50.928;4.440;2023-11-21T07:55:20;12.20;99.90
21246;DHT22;10781;50.928;4.440;2023-11-21T07:57:46;12.20;99.90
21246;DHT22;10781;50.928;4.440;2023-11-21T08:00:12;12.10;99.90
21246;DHT22;10781;50.928;4.440;2023-11-21T08:02:40;12.20;99.90
21246;DHT22;10781;50.928;4.440;2023-11-21T08:05:12;12.30;99.90
21246;DHT22;10781;50.928;4.440;2023-11-21T08:07:37;12.40;99.90
21246;DHT22;10781;50.928;4.440;2023-11-21T08:10:04;12.40;99.90
21246;DHT22;10781;50.928;4.440;2023-11-21T08:12:32;12.40;99.90
21246;DHT22;10781;50.928;4.440;2023-11-21T08:14:57;12.50;99.90
21246;DHT22;10781;50.928;4.440;2023-11-21T08:17:23;12.50;99.90
21246;DHT22;10781;50.928;4.440;2023-11-21T08:19:49;12.60;99.90
21246;DHT22;10781;50.928;4.440;2023-11-21T08:22:16;12.60;99.90
21246;DHT22;10781;50.928;4.440;2023-11-21T08:24:43;12.60;99.90
21246;DHT22;10781;50.928;4.440;2023-11-21T08:27:09;12.60;99.90
21246;DHT22;10781;50.928;4.440;2023-11-21T08:29:35;12.60;99.90
21246;DHT22;10781;50.928;4.440;2023-11-21T08:32:02;12.40;99.90
21246;DHT22;10781;50.928;4.440;2023-11-21T08:34:28;12.40;99.90
21246;DHT22;10781;50.928;4.440;2023-11-21T08:36:54;12.50;99.90
21246;DHT22;10781;50.928;4.440;2023-11-21T08:39:21;12.50;99.90
21246;DHT22;10781;50.928;4.440;2023-11-21T08:41:50;12.60;99.90
21246;DHT22;10781;50.928;4.440;2023-11-21T08:44:16;12.60;99.90
21246;DHT22;10781;50.928;4.440;2023-11-21T08:46:44;12.60;99.90
21246;DHT22;10781;50.928;4.440;2023-11-21T08:49:11;12.70;99.90
21246;DHT22;10781;50.928;4.440;2023-11-21T08:51:38;12.70;99.90
21246;DHT22;10781;50.928;4.440;2023-11-21T08:54:04;12.60;99.90
21246;DHT22;10781;50.928;4.440;2023-11-21T08:56:33;12.70;99.90
21246;DHT22;10781;50.928;4.440;2023-11-21T08:58:59;12.70;99.90
21246;DHT22;10781;50.928;4.440;2023-11-21T09:01:31;12.70;99.90
21246;DHT22;10781;50.928;4.440;2023-11-21T09:03:57;12.50;99.90
21246;DHT22;10781;50.928;4.440;2023-11-21T09:06:23;12.50;99.90
21246;DHT22;10781;50.928;4.440;2023-11-21T09:08:49;12.70;99.90
21246;DHT22;10781;50.928;4.440;2023-11-21T09:11:15;12.70;99.90
21246;DHT22;10781;50.928;4.440;2023-11-21T09:13:41;12.70;99.90
21246;DHT22;10781;50.928;4.440;2023-11-21T09:16:07;12.80;99.90
21246;DHT22;10781;50.928;4.440;2023-11-21T09:18:32;12.90;99.90
21246;DHT22;10781;50.928;4.440;2023-11-21T09:20:58;13.00;99.90
21246;DHT22;10781;50.928;4.440;2023-11-21T09:23:24;13.10;99.90
21246;DHT22;10781;50.928;4.440;2023-11-21T09:25:50;13.00;99.90
21246;DHT22;10781;50.928;4.440;2023-11-21T09:28:17;12.90;99.90
21246;DHT22;10781;50.928;4.440;2023-11-21T09:30:43;13.00;99.90
21246;DHT22;10781;50.928;4.440;2023-11-21T09:33:09;13.10;99.90
21246;DHT22;10781;50.928;4.440;2023-11-21T09:35:37;13.30;99.90
21246;DHT22;10781;50.928;4.440;2023-11-21T09:38:04;13.30;99.90
21246;DHT22;10781;50.928;4.440;2023-11-21T09:40:35;13.30;99.90
21246;DHT22;10781;50.928;4.440;2023-11-21T09:43:05;13.00;99.90
21246;DHT22;10781;50.928;4.440;2023-11-21T09:45:35;12.80;99.90
21246;DHT22;10781;50.928;4.440;2023-11-21T09:48:01;12.70;99.90
21246;DHT22;10781;50.928;4.440;2023-11-21T09:50:28;12.30;99.90
21246;DHT22;10781;50.928;4.440;2023-11-21T09:53:09;12.20;99.90
21246;DHT22;10781;50.928;4.440;2023-11-21T09:55:37;12.20;99.90
21246;DHT22;10781;50.928;4.440;2023-11-21T09:58:06;12.10;99.90
21246;DHT22;10781;50.928;4.440;2023-11-21T10:00:41;12.20;99.90
21246;DHT22;10781;50.928;4.440;2023-11-21T10:03:07;12.10;99.90
21246;DHT22;10781;50.928;4.440;2023-11-21T10:05:35;12.00;99.90
21246;DHT22;10781;50.928;4.440;2023-11-21T10:08:00;12.00;99.90
21246;DHT22;10781;50.928;4.440;2023-11-21T10:10:27;12.20;99.90
21246;DHT22;10781;50.928;4.440;2023-11-21T10:12:57;12.20;99.90
21246;DHT22;10781;50.928;4.440;2023-11-21T10:15:29;12.40;99.90
21246;DHT22;10781;50.928;4.440;2023-11-21T10:17:56;12.50;99.90
21246;DHT22;10781;50.928;4.440;2023-11-21T10:20:23;12.60;99.90
21246;DHT22;10781;50.928;4.440;2023-11-21T10:22:50;12.70;99.90
21246;DHT22;10781;50.928;4.440;2023-11-21T10:25:16;13.00;99.90
21246;DHT22;10781;50.928;4.440;2023-11-21T10:27:43;13.00;99.90
21246;DHT22;10781;50.928;4.440;2023-11-21T10:30:11;13.20;99.90
21246;DHT22;10781;50.928;4.440;2023-11-21T10:32:42;13.30;99.90
21246;DHT22;10781;50.928;4.440;2023-11-21T10:35:08;13.40;99.90
21246;DHT22;10781;50.928;4.440;2023-11-21T10:37:40;13.60;99.90
21246;DHT22;10781;50.928;4.440;2023-11-21T10:40:10;13.80;99.90
21246;DHT22;10781;50.928;4.440;2023-11-21T10:42:39;13.90;99.90
21246;DHT22;10781;50.928;4.440;2023-11-21T10:45:06;13.80;99.90
21246;DHT22;10781;50.928;4.440;2023-11-21T10:47:40;13.90;99.90
21246;DHT22;10781;50.928;4.440;2023-11-21T10:50:07;13.90;99.90
21246;DHT22;10781;50.928;4.440;2023-11-21T10:52:41;13.80;99.90
21246;DHT22;10781;50.928;4.440;2023-11-21T10:55:19;13.90;99.90
21246;DHT22;10781;50.928;4.440;2023-11-21T10:57:52;14.10;99.90
21246;DHT22;10781;50.928;4.440;2023-11-21T11:00:19;14.20;99.90
21246;DHT22;10781;50.928;4.440;2023-11-21T11:02:51;14.30;99.90
21246;DHT22;10781;50.928;4.440;2023-11-21T11:05:21;14.20;99.90
21246;DHT22;10781;50.928;4.440;2023-11-21T11:07:51;14.20;99.90
21246;DHT22;10781;50.928;4.440;2023-11-21T11:10:21;14.40;99.90
21246;DHT22;10781;50.928;4.440;2023-11-21T11:12:48;14.50;99.90
21246;DHT22;10781;50.928;4.440;2023-11-21T11:15:16;14.70;99.90
21246;DHT22;10781;50.928;4.440;2023-11-21T11:17:42;14.80;99.90
21246;DHT22;10781;50.928;4.440;2023-11-21T11:20:12;14.50;99.90
21246;DHT22;10781;50.928;4.440;2023-11-21T11:23:06;14.30;99.90
21246;DHT22;10781;50.928;4.440;2023-11-21T11:28:29;14.30;99.90
21246;DHT22;10781;50.928;4.440;2023-11-21T11:31:00;14.50;99.90
21246;DHT22;10781;50.928;4.440;2023-11-21T11:33:40;14.60;99.90
21246;DHT22;10781;50.928;4.440;2023-11-21T11:38:38;14.70;99.90
21246;DHT22;10781;50.928;4.440;2023-11-21T11:41:06;14.70;99.90
21246;DHT22;10781;50.928;4.440;2023-11-21T11:43:32;14.60;99.90
21246;DHT22;10781;50.928;4.440;2023-11-21T11:46:02;14.40;99.90
21246;DHT22;10781;50.928;4.440;2023-11-21T11:48:37;14.10;99.90
21246;DHT22;10781;50.928;4.440;2023-11-21T11:51:11;13.90;99.90
21246;DHT22;10781;50.928;4.440;2023-11-21T11:53:41;13.70;99.90
21246;DHT22;10781;50.928;4.440;2023-11-21T11:56:34;13.80;99.90
21246;DHT22;10781;50.928;4.440;2023-11-21T11:59:04;13.80;99.90
21246;DHT22;10781;50.928;4.440;2023-11-21T12:01:33;13.70;99.90
21246;DHT22;10781;50.928;4.440;2023-11-21T12:06:42;13.70;99.90
21246;DHT22;10781;50.928;4.440;2023-11-21T12:09:17;13.60;99.90
21246;DHT22;10781;50.928;4.440;2023-11-21T12:11:44;13.60;99.90
21246;DHT22;10781;50.928;4.440;2023-11-21T12:14:10;13.50;99.90
21246;DHT22;10781;50.928;4.440;2023-11-21T12:16:35;13.40;99.90
21246;DHT22;10781;50.928;4.440;2023-11-21T12:19:02;13.40;99.90
21246;DHT22;10781;50.928;4.440;2023-11-21T12:21:28;13.30;99.90
21246;DHT22;10781;50.928;4.440;2023-11-21T12:23:55;13.20;99.90
21246;DHT22;10781;50.928;4.440;2023-11-21T12:26:23;13.10;99.90
21246;DHT22;10781;50.928;4.440;2023-11-21T12:28:53;13.10;99.90
21246;DHT22;10781;50.928;4.440;2023-11-21T12:31:22;13.20;99.90
21246;DHT22;10781;50.928;4.440;2023-11-21T12:33:48;13.30;99.90
21246;DHT22;10781;50.928;4.440;2023-11-21T12:36:13;13.20;99.90
21246;DHT22;10781;50.928;4.440;2023-11-21T12:38:39;13.10;99.90
21246;DHT22;10781;50.928;4.440;2023-11-21T12:41:05;13.00;99.90
21246;DHT22;10781;50.928;4.440;2023-11-21T12:43:32;13.30;99.90
21246;DHT22;10781;50.928;4.440;2023-11-21T12:46:08;13.40;99.90
21246;DHT22;10781;50.928;4.440;2023-11-21T12:48:37;13.40;99.90
21246;DHT22;10781;50.928;4.440;2023-11-21T12:51:08;13.20;99.90
21246;DHT22;10781;50.928;4.440;2023-11-21T12:53:35;13.00;99.90
21246;DHT22;10781;50.928;4.440;2023-11-21T12:56:11;13.00;99.90
21246;DHT22;10781;50.928;4.440;2023-11-21T12:58:39;13.00;99.90
21246;DHT22;10781;50.928;4.440;2023-11-21T13:01:05;13.00;99.90
21246;DHT22;10781;50.928;4.440;2023-11-21T13:03:37;13.00;99.90
21246;DHT22;10781;50.928;4.440;2023-11-21T13:06:04;12.80;99.90
21246;DHT22;10781;50.928;4.440;2023-11-21T13:08:31;12.90;99.90
21246;DHT22;10781;50.928;4.440;2023-11-21T13:10:58;12.90;99.90
21246;DHT22;10781;50.928;4.440;2023-11-21T13:13:25;13.00;99.90
21246;DHT22;10781;50.928;4.440;2023-11-21T13:15:54;13.10;99.90
21246;DHT22;10781;50.928;4.440;2023-11-21T13:18:24;13.20;99.90
21246;DHT22;10781;50.928;4.440;2023-11-21T13:20:53;13.10;99.90
21246;DHT22;10781;50.928;4.440;2023-11-21T13:23:18;13.00;99.90
21246;DHT22;10781;50.928;4.440;2023-11-21T13:25:44;12.90;99.90
21246;DHT22;10781;50.928;4.440;2023-11-21T13:28:14;13.00;99.90
21246;DHT22;10781;50.928;4.440;2023-11-21T13:30:41;12.90;99.90
21246;DHT22;10781;50.928;4.440;2023-11-21T13:33:08;12.80;99.90
21246;DHT22;10781;50.928;4.440;2023-11-21T13:35:35;12.60;99.90
21246;DHT22;10781;50.928;4.440;2023-11-21T13:38:13;12.70;99.90
21246;DHT22;10781;50.928;4.440;2023-11-21T13:40:41;12.70;99.90
21246;DHT22;10781;50.928;4.440;2023-11-21T13:43:13;12.70;99.90
21246;DHT22;10781;50.928;4.440;2023-11-21T13:45:40;12.90;99.90
21246;DHT22;10781;50.928;4.440;2023-11-21T13:48:06;13.00;99.90
21246;DHT22;10781;50.928;4.440;2023-11-21T13:50:45;13.00;99.90
21246;DHT22;10781;50.928;4.440;2023-11-21T13:53:23;13.10;99.90
21246;DHT22;10781;50.928;4.440;2023-11-21T13:55:55;13.00;99.90
21246;DHT22;10781;50.928;4.440;2023-11-21T13:58:23;13.00;99.90
21246;DHT22;10781;50.928;4.440;2023-11-21T14:01:12;12.70;99.90
21246;DHT22;10781;50.928;4.440;2023-11-21T14:06:27;12.90;99.90
21246;DHT22;10781;50.928;4.440;2023-11-21T14:09:00;13.00;99.90
21246;DHT22;10781;50.928;4.440;2023-11-21T14:11:32;12.90;99.90
21246;DHT22;10781;50.928;4.440;2023-11-21T14:13:59;12.70;99.90
21246;DHT22;10781;50.928;4.440;2023-11-21T14:16:25;12.60;99.90
21246;DHT22;10781;50.928;4.440;2023-11-21T14:18:51;12.70;99.90
21246;DHT22;10781;50.928;4.440;2023-11-21T14:21:27;12.70;99.90
21246;DHT22;10781;50.928;4.440;2023-11-21T14:23:52;12.90;99.90
21246;DHT22;10781;50.928;4.440;2023-11-21T14:26:20;12.80;99.90
21246;DHT22;10781;50.928;4.440;2023-11-21T14:28:46;12.70;99.90
21246;DHT22;10781;50.928;4.440;2023-11-21T14:31:14;12.70;99.90
21246;DHT22;10781;50.928;4.440;2023-11-21T14:33:43;12.80;99.90
21246;DHT22;10781;50.928;4.440;2023-11-21T14:36:09;12.80;99.90
21246;DHT22;10781;50.928;4.440;2023-11-21T14:38:36;12.80;99.90
21246;DHT22;10781;50.928;4.440;2023-11-21T14:41:02;12.80;99.90
21246;DHT22;10781;50.928;4.440;2023-11-21T14:43:29;12.60;99.90
21246;DHT22;10781;50.928;4.440;2023-11-21T14:45:59;12.60;99.90
21246;DHT22;10781;50.928;4.440;2023-11-21T14:48:25;12.70;99.90
21246;DHT22;10781;50.928;4.440;2023-11-21T14:51:12;12.70;99.90
21246;DHT22;10781;50.928;4.440;2023-11-21T14:53:40;12.60;99.90
21246;DHT22;10781;50.928;4.440;2023-11-21T14:56:14;12.60;99.90
21246;DHT22;10781;50.928;4.440;2023-11-21T14:58:48;12.60;99.90
21246;DHT22;10781;50.928;4.440;2023-11-21T15:01:14;12.50;99.90
21246;DHT22;10781;50.928;4.440;2023-11-21T15:03:39;12.40;99.90
21246;DHT22;10781;50.928;4.440;2023-11-21T15:06:15;12.30;99.90
21246;DHT22;10781;50.928;4.440;2023-11-21T15:08:58;12.30;99.90
21246;DHT22;10781;50.928;4.440;2023-11-21T15:11:33;12.40;99.90
21246;DHT22;10781;50.928;4.440;2023-11-21T15:14:15;12.40;99.90
21246;DHT22;10781;50.928;4.440;2023-11-21T15:16:46;12.30;99.90
21246;DHT22;10781;50.928;4.440;2023-11-21T15:19:16;12.40;99.90
21246;DHT22;10781;50.928;4.440;2023-11-21T15:21:44;12.20;99.90
21246;DHT22;10781;50.928;4.440;2023-11-21T15:24:11;12.20;99.90
21246;DHT22;10781;50.928;4.440;2023-11-21T15:26:37;12.00;99.90
21246;DHT22;10781;50.928;4.440;2023-11-21T15:29:05;11.90;99.90
21246;DHT22;10781;50.928;4.440;2023-11-21T15:31:31;11.90;99.90
21246;DHT22;10781;50.928;4.440;2023-11-21T15:33:56;11.90;99.90
21246;DHT22;10781;50.928;4.440;2023-11-21T15:36:26;12.10;99.90
21246;DHT22;10781;50.928;4.440;2023-11-21T15:38:52;12.10;99.90
21246;DHT22;10781;50.928;4.440;2023-11-21T15:41:19;12.10;99.90
21246;DHT22;10781;50.928;4.440;2023-11-21T15:43:46;12.10;99.90